sensor_id;sensor_type;location;lat;lon;timestamp;P1;durP1;ratioP1;P2;durP2;ratioP2
46481;SDS011;32193;51.446;6.792;2022-11-06T00:01:14;11.07;;;4.22;;
46481;SDS011;32193;51.446;6.792;2022-11-06T00:03:41;10.40;;;3.63;;
46481;SDS011;32193;51.446;6.792;2022-11-06T00:06:08;10.23;;;4.18;;
46481;SDS011;32193;51.446;6.792;2022-11-06T00:08:53;11.98;;;4.10;;
46481;SDS011;32193;51.446;6.792;2022-11-06T00:11:20;11.27;;;3.35;;
46481;SDS011;32193;51.446;6.792;2022-11-06T00:13:46;8.32;;;4.18;;
46481;SDS011;32193;51.446;6.792;2022-11-06T00:16:13;11.52;;;3.83;;
46481;SDS011;32193;51.446;6.792;2022-11-06T00:18:39;11.55;;;3.97;;
46481;SDS011;32193;51.446;6.792;2022-11-06T00:21:06;10.27;;;4.18;;
46481;SDS011;32193;51.446;6.792;2022-11-06T00:23:33;12.10;;;4.68;;
46481;SDS011;32193;51.446;6.792;2022-11-06T00:25:58;10.70;;;4.07;;
46481;SDS011;32193;51.446;6.792;2022-11-06T00:28:24;12.15;;;4.38;;
46481;SDS011;32193;51.446;6.792;2022-11-06T00:30:49;10.20;;;3.78;;
46481;SDS011;32193;51.446;6.792;2022-11-06T00:33:15;12.77;;;4.07;;
46481;SDS011;32193;51.446;6.792;2022-11-06T00:35:41;9.25;;;4.35;;
46481;SDS011;32193;51.446;6.792;2022-11-06T00:38:07;14.48;;;4.63;;
46481;SDS011;32193;51.446;6.792;2022-11-06T00:40:33;14.10;;;5.78;;
46481;SDS011;32193;51.446;6.792;2022-11-06T00:42:58;9.88;;;4.30;;
46481;SDS011;32193;51.446;6.792;2022-11-06T00:45:24;9.90;;;4.43;;
46481;SDS011;32193;51.446;6.792;2022-11-06T00:47:50;9.77;;;4.65;;
46481;SDS011;32193;51.446;6.792;2022-11-06T00:50:16;13.52;;;4.72;;
46481;SDS011;32193;51.446;6.792;2022-11-06T00:52:42;12.43;;;5.32;;
46481;SDS011;32193;51.446;6.792;2022-11-06T00:55:09;10.10;;;5.03;;
46481;SDS011;32193;51.446;6.792;2022-11-06T00:57:34;13.13;;;5.25;;
46481;SDS011;32193;51.446;6.792;2022-11-06T01:00:00;13.40;;;5.45;;
46481;SDS011;32193;51.446;6.792;2022-11-06T01:02:26;14.05;;;4.90;;
46481;SDS011;32193;51.446;6.792;2022-11-06T01:04:52;13.35;;;5.25;;
46481;SDS011;32193;51.446;6.792;2022-11-06T01:07:17;9.95;;;5.00;;
46481;SDS011;32193;51.446;6.792;2022-11-06T01:09:43;16.08;;;5.95;;
46481;SDS011;32193;51.446;6.792;2022-11-06T01:12:09;15.77;;;5.30;;
46481;SDS011;32193;51.446;6.792;2022-11-06T01:14:35;10.10;;;5.50;;
46481;SDS011;32193;51.446;6.792;2022-11-06T01:17:01;10.73;;;4.85;;
46481;SDS011;32193;51.446;6.792;2022-11-06T01:19:26;14.23;;;5.53;;
46481;SDS011;32193;51.446;6.792;2022-11-06T01:21:52;13.13;;;5.30;;
46481;SDS011;32193;51.446;6.792;2022-11-06T01:24:19;9.63;;;4.80;;
46481;SDS011;32193;51.446;6.792;2022-11-06T01:26:47;16.40;;;5.97;;
46481;SDS011;32193;51.446;6.792;2022-11-06T01:29:14;12.60;;;4.70;;
46481;SDS011;32193;51.446;6.792;2022-11-06T01:31:41;9.95;;;5.03;;
46481;SDS011;32193;51.446;6.792;2022-11-06T01:34:06;14.02;;;5.07;;
46481;SDS011;32193;51.446;6.792;2022-11-06T01:36:32;12.90;;;5.30;;
46481;SDS011;32193;51.446;6.792;2022-11-06T01:39:00;12.32;;;4.85;;
46481;SDS011;32193;51.446;6.792;2022-11-06T01:41:32;12.40;;;4.97;;
46481;SDS011;32193;51.446;6.792;2022-11-06T01:44:01;13.57;;;5.20;;
46481;SDS011;32193;51.446;6.792;2022-11-06T01:46:30;11.70;;;4.90;;
46481;SDS011;32193;51.446;6.792;2022-11-06T01:49:05;11.27;;;5.28;;
46481;SDS011;32193;51.446;6.792;2022-11-06T01:51:38;10.80;;;5.07;;
46481;SDS011;32193;51.446;6.792;2022-11-06T01:54:07;13.13;;;4.90;;
46481;SDS011;32193;51.446;6.792;2022-11-06T01:56:33;10.55;;;4.50;;
46481;SDS011;32193;51.446;6.792;2022-11-06T01:59:01;12.02;;;4.45;;
46481;SDS011;32193;51.446;6.792;2022-11-06T02:01:28;14.82;;;4.90;;
46481;SDS011;32193;51.446;6.792;2022-11-06T02:03:55;10.48;;;4.00;;
46481;SDS011;32193;51.446;6.792;2022-11-06T02:06:28;8.57;;;3.65;;
46481;SDS011;32193;51.446;6.792;2022-11-06T02:08:54;11.68;;;4.03;;
46481;SDS011;32193;51.446;6.792;2022-11-06T02:11:20;9.70;;;3.60;;
46481;SDS011;32193;51.446;6.792;2022-11-06T02:29:44;14.50;;;3.22;;
46481;SDS011;32193;51.446;6.792;2022-11-06T02:32:15;9.85;;;3.70;;
46481;SDS011;32193;51.446;6.792;2022-11-06T02:38:02;11.48;;;3.00;;
46481;SDS011;32193;51.446;6.792;2022-11-06T02:40:35;8.50;;;2.88;;
46481;SDS011;32193;51.446;6.792;2022-11-06T02:43:06;8.43;;;2.63;;
46481;SDS011;32193;51.446;6.792;2022-11-06T02:45:34;10.40;;;3.47;;
46481;SDS011;32193;51.446;6.792;2022-11-06T02:48:07;11.25;;;3.58;;
46481;SDS011;32193;51.446;6.792;2022-11-06T02:50:38;10.95;;;2.63;;
46481;SDS011;32193;51.446;6.792;2022-11-06T02:53:06;5.65;;;2.60;;
46481;SDS011;32193;51.446;6.792;2022-11-06T02:55:38;10.88;;;2.70;;
46481;SDS011;32193;51.446;6.792;2022-11-06T02:58:08;8.52;;;2.58;;
46481;SDS011;32193;51.446;6.792;2022-11-06T03:00:38;9.25;;;2.55;;
46481;SDS011;32193;51.446;6.792;2022-11-06T03:03:11;11.48;;;2.90;;
46481;SDS011;32193;51.446;6.792;2022-11-06T03:05:53;9.70;;;3.30;;
46481;SDS011;32193;51.446;6.792;2022-11-06T03:08:33;10.25;;;2.60;;
46481;SDS011;32193;51.446;6.792;2022-11-06T03:11:24;9.10;;;2.53;;
46481;SDS011;32193;51.446;6.792;2022-11-06T03:14:14;10.77;;;2.88;;
46481;SDS011;32193;51.446;6.792;2022-11-06T03:16:58;7.38;;;2.28;;
46481;SDS011;32193;51.446;6.792;2022-11-06T03:27:01;5.70;;;2.63;;
46481;SDS011;32193;51.446;6.792;2022-11-06T03:29:43;12.13;;;2.85;;
46481;SDS011;32193;51.446;6.792;2022-11-06T03:32:20;8.90;;;2.40;;
46481;SDS011;32193;51.446;6.792;2022-11-06T03:34:54;8.95;;;3.20;;
46481;SDS011;32193;51.446;6.792;2022-11-06T03:37:40;10.30;;;2.97;;
46481;SDS011;32193;51.446;6.792;2022-11-06T03:40:12;9.80;;;3.25;;
46481;SDS011;32193;51.446;6.792;2022-11-06T03:42:41;7.38;;;2.55;;
46481;SDS011;32193;51.446;6.792;2022-11-06T03:45:10;7.85;;;2.17;;
46481;SDS011;32193;51.446;6.792;2022-11-06T03:47:45;9.80;;;2.47;;
46481;SDS011;32193;51.446;6.792;2022-11-06T03:50:16;9.48;;;2.55;;
46481;SDS011;32193;51.446;6.792;2022-11-06T03:52:57;10.60;;;2.72;;
46481;SDS011;32193;51.446;6.792;2022-11-06T03:55:37;13.63;;;3.05;;
46481;SDS011;32193;51.446;6.792;2022-11-06T03:58:08;8.13;;;2.75;;
46481;SDS011;32193;51.446;6.792;2022-11-06T04:00:38;10.50;;;2.47;;
46481;SDS011;32193;51.446;6.792;2022-11-06T04:03:17;8.98;;;2.50;;
46481;SDS011;32193;51.446;6.792;2022-11-06T04:05:55;11.85;;;3.47;;
46481;SDS011;32193;51.446;6.792;2022-11-06T04:08:41;10.05;;;2.90;;
46481;SDS011;32193;51.446;6.792;2022-11-06T04:11:28;11.00;;;2.85;;
46481;SDS011;32193;51.446;6.792;2022-11-06T04:14:16;13.23;;;2.65;;
46481;SDS011;32193;51.446;6.792;2022-11-06T04:16:47;12.98;;;2.78;;
46481;SDS011;32193;51.446;6.792;2022-11-06T04:19:20;11.80;;;2.35;;
46481;SDS011;32193;51.446;6.792;2022-11-06T04:30:20;10.95;;;2.83;;
46481;SDS011;32193;51.446;6.792;2022-11-06T04:32:53;6.75;;;2.40;;
46481;SDS011;32193;51.446;6.792;2022-11-06T04:38:01;10.85;;;3.28;;
46481;SDS011;32193;51.446;6.792;2022-11-06T04:40:46;8.30;;;3.58;;
46481;SDS011;32193;51.446;6.792;2022-11-06T04:45:57;11.85;;;3.00;;
46481;SDS011;32193;51.446;6.792;2022-11-06T04:48:24;8.52;;;3.08;;
46481;SDS011;32193;51.446;6.792;2022-11-06T04:50:52;13.98;;;2.78;;
46481;SDS011;32193;51.446;6.792;2022-11-06T04:53:20;7.68;;;2.45;;
46481;SDS011;32193;51.446;6.792;2022-11-06T04:55:55;8.10;;;2.13;;
46481;SDS011;32193;51.446;6.792;2022-11-06T04:58:25;9.88;;;3.15;;
46481;SDS011;32193;51.446;6.792;2022-11-06T05:00:51;12.20;;;2.78;;
46481;SDS011;32193;51.446;6.792;2022-11-06T05:03:17;8.80;;;2.08;;
46481;SDS011;32193;51.446;6.792;2022-11-06T05:05:43;9.32;;;2.90;;
46481;SDS011;32193;51.446;6.792;2022-11-06T05:08:18;8.77;;;2.25;;
46481;SDS011;32193;51.446;6.792;2022-11-06T05:10:45;8.35;;;2.05;;
46481;SDS011;32193;51.446;6.792;2022-11-06T05:13:11;10.55;;;2.72;;
46481;SDS011;32193;51.446;6.792;2022-11-06T05:15:37;12.40;;;2.63;;
46481;SDS011;32193;51.446;6.792;2022-11-06T05:18:03;6.80;;;2.15;;
46481;SDS011;32193;51.446;6.792;2022-11-06T05:20:29;10.32;;;2.42;;
46481;SDS011;32193;51.446;6.792;2022-11-06T05:22:55;15.48;;;4.00;;
46481;SDS011;32193;51.446;6.792;2022-11-06T05:25:31;8.98;;;2.50;;
46481;SDS011;32193;51.446;6.792;2022-11-06T05:27:58;6.07;;;2.03;;
46481;SDS011;32193;51.446;6.792;2022-11-06T05:30:24;9.40;;;2.17;;
46481;SDS011;32193;51.446;6.792;2022-11-06T05:32:51;9.20;;;2.45;;
46481;SDS011;32193;51.446;6.792;2022-11-06T05:35:17;8.70;;;2.28;;
46481;SDS011;32193;51.446;6.792;2022-11-06T05:37:44;9.65;;;2.20;;
46481;SDS011;32193;51.446;6.792;2022-11-06T05:40:10;9.35;;;2.70;;
46481;SDS011;32193;51.446;6.792;2022-11-06T05:42:37;7.18;;;2.30;;
46481;SDS011;32193;51.446;6.792;2022-11-06T05:45:03;10.05;;;2.33;;
46481;SDS011;32193;51.446;6.792;2022-11-06T05:47:30;9.63;;;2.17;;
46481;SDS011;32193;51.446;6.792;2022-11-06T05:49:56;8.68;;;2.28;;
46481;SDS011;32193;51.446;6.792;2022-11-06T05:52:21;11.63;;;2.35;;
46481;SDS011;32193;51.446;6.792;2022-11-06T05:54:47;10.45;;;2.50;;
46481;SDS011;32193;51.446;6.792;2022-11-06T05:57:13;9.43;;;2.50;;
46481;SDS011;32193;51.446;6.792;2022-11-06T05:59:38;7.78;;;2.28;;
46481;SDS011;32193;51.446;6.792;2022-11-06T06:02:04;10.35;;;2.25;;
46481;SDS011;32193;51.446;6.792;2022-11-06T06:04:29;10.45;;;2.72;;
46481;SDS011;32193;51.446;6.792;2022-11-06T06:06:55;10.93;;;3.00;;
46481;SDS011;32193;51.446;6.792;2022-11-06T06:09:21;9.18;;;2.30;;
46481;SDS011;32193;51.446;6.792;2022-11-06T06:11:50;9.68;;;2.35;;
46481;SDS011;32193;51.446;6.792;2022-11-06T06:14:16;8.10;;;2.70;;
46481;SDS011;32193;51.446;6.792;2022-11-06T06:16:42;9.20;;;2.65;;
46481;SDS011;32193;51.446;6.792;2022-11-06T06:19:08;7.60;;;2.22;;
46481;SDS011;32193;51.446;6.792;2022-11-06T06:21:34;8.75;;;2.33;;
46481;SDS011;32193;51.446;6.792;2022-11-06T06:24:00;10.55;;;2.67;;
46481;SDS011;32193;51.446;6.792;2022-11-06T06:26:27;11.70;;;2.55;;
46481;SDS011;32193;51.446;6.792;2022-11-06T06:28:52;10.65;;;3.00;;
46481;SDS011;32193;51.446;6.792;2022-11-06T06:31:18;8.68;;;1.95;;
46481;SDS011;32193;51.446;6.792;2022-11-06T06:33:44;8.65;;;2.15;;
46481;SDS011;32193;51.446;6.792;2022-11-06T06:36:09;8.50;;;2.45;;
46481;SDS011;32193;51.446;6.792;2022-11-06T06:38:35;10.60;;;2.20;;
46481;SDS011;32193;51.446;6.792;2022-11-06T06:41:02;9.02;;;2.08;;
46481;SDS011;32193;51.446;6.792;2022-11-06T06:43:29;7.65;;;2.10;;
46481;SDS011;32193;51.446;6.792;2022-11-06T06:46:01;9.27;;;2.55;;
46481;SDS011;32193;51.446;6.792;2022-11-06T06:48:29;7.70;;;2.03;;
46481;SDS011;32193;51.446;6.792;2022-11-06T06:50:56;9.90;;;2.20;;
46481;SDS011;32193;51.446;6.792;2022-11-06T06:53:22;12.43;;;2.30;;
46481;SDS011;32193;51.446;6.792;2022-11-06T06:55:48;11.57;;;2.35;;
46481;SDS011;32193;51.446;6.792;2022-11-06T06:58:14;10.35;;;2.28;;
46481;SDS011;32193;51.446;6.792;2022-11-06T07:00:40;7.43;;;1.85;;
46481;SDS011;32193;51.446;6.792;2022-11-06T07:03:06;8.75;;;2.28;;
46481;SDS011;32193;51.446;6.792;2022-11-06T07:05:32;7.50;;;1.88;;
46481;SDS011;32193;51.446;6.792;2022-11-06T07:07:57;9.20;;;2.22;;
46481;SDS011;32193;51.446;6.792;2022-11-06T07:10:23;8.10;;;2.65;;
46481;SDS011;32193;51.446;6.792;2022-11-06T07:12:48;8.90;;;2.33;;
46481;SDS011;32193;51.446;6.792;2022-11-06T07:15:14;13.15;;;2.13;;
46481;SDS011;32193;51.446;6.792;2022-11-06T07:17:40;8.65;;;2.05;;
46481;SDS011;32193;51.446;6.792;2022-11-06T07:20:06;7.22;;;1.90;;
46481;SDS011;32193;51.446;6.792;2022-11-06T07:22:32;9.18;;;2.33;;
46481;SDS011;32193;51.446;6.792;2022-11-06T07:24:58;8.57;;;2.42;;
46481;SDS011;32193;51.446;6.792;2022-11-06T07:27:24;10.30;;;2.03;;
46481;SDS011;32193;51.446;6.792;2022-11-06T07:29:50;11.82;;;2.90;;
46481;SDS011;32193;51.446;6.792;2022-11-06T07:32:16;9.70;;;2.10;;
46481;SDS011;32193;51.446;6.792;2022-11-06T07:34:43;9.63;;;2.45;;
46481;SDS011;32193;51.446;6.792;2022-11-06T07:37:09;6.88;;;1.88;;
46481;SDS011;32193;51.446;6.792;2022-11-06T07:39:35;7.75;;;2.08;;
46481;SDS011;32193;51.446;6.792;2022-11-06T07:42:00;8.57;;;2.55;;
46481;SDS011;32193;51.446;6.792;2022-11-06T07:44:26;8.98;;;2.47;;
46481;SDS011;32193;51.446;6.792;2022-11-06T07:46:51;12.65;;;2.35;;
46481;SDS011;32193;51.446;6.792;2022-11-06T07:49:17;7.38;;;2.53;;
46481;SDS011;32193;51.446;6.792;2022-11-06T07:51:43;10.60;;;2.78;;
46481;SDS011;32193;51.446;6.792;2022-11-06T07:54:09;10.02;;;2.22;;
46481;SDS011;32193;51.446;6.792;2022-11-06T07:56:36;8.98;;;2.40;;
46481;SDS011;32193;51.446;6.792;2022-11-06T07:59:02;7.35;;;2.03;;
46481;SDS011;32193;51.446;6.792;2022-11-06T08:01:28;10.90;;;2.65;;
46481;SDS011;32193;51.446;6.792;2022-11-06T08:03:54;8.63;;;2.10;;
46481;SDS011;32193;51.446;6.792;2022-11-06T08:06:20;8.55;;;2.25;;
46481;SDS011;32193;51.446;6.792;2022-11-06T08:08:46;10.27;;;2.22;;
46481;SDS011;32193;51.446;6.792;2022-11-06T08:11:11;9.07;;;2.05;;
46481;SDS011;32193;51.446;6.792;2022-11-06T08:13:37;8.05;;;2.28;;
46481;SDS011;32193;51.446;6.792;2022-11-06T08:16:04;10.13;;;2.40;;
46481;SDS011;32193;51.446;6.792;2022-11-06T08:18:31;10.13;;;1.90;;
46481;SDS011;32193;51.446;6.792;2022-11-06T08:20:57;9.68;;;2.88;;
46481;SDS011;32193;51.446;6.792;2022-11-06T08:23:23;9.30;;;2.50;;
46481;SDS011;32193;51.446;6.792;2022-11-06T08:25:52;11.32;;;2.53;;
46481;SDS011;32193;51.446;6.792;2022-11-06T08:28:18;5.45;;;1.85;;
46481;SDS011;32193;51.446;6.792;2022-11-06T08:30:44;10.35;;;2.30;;
46481;SDS011;32193;51.446;6.792;2022-11-06T08:33:09;14.60;;;2.70;;
46481;SDS011;32193;51.446;6.792;2022-11-06T08:35:35;14.18;;;3.22;;
46481;SDS011;32193;51.446;6.792;2022-11-06T08:38:01;16.02;;;3.63;;
46481;SDS011;32193;51.446;6.792;2022-11-06T08:40:27;12.13;;;2.97;;
46481;SDS011;32193;51.446;6.792;2022-11-06T08:42:57;8.55;;;2.67;;
46481;SDS011;32193;51.446;6.792;2022-11-06T08:45:27;10.45;;;2.42;;
46481;SDS011;32193;51.446;6.792;2022-11-06T08:47:53;8.27;;;2.70;;
46481;SDS011;32193;51.446;6.792;2022-11-06T08:50:19;7.85;;;2.60;;
46481;SDS011;32193;51.446;6.792;2022-11-06T08:52:45;7.40;;;2.80;;
46481;SDS011;32193;51.446;6.792;2022-11-06T08:55:11;11.93;;;2.70;;
46481;SDS011;32193;51.446;6.792;2022-11-06T08:57:37;9.38;;;2.20;;
46481;SDS011;32193;51.446;6.792;2022-11-06T09:00:03;8.63;;;2.20;;
46481;SDS011;32193;51.446;6.792;2022-11-06T09:02:29;13.27;;;2.53;;
46481;SDS011;32193;51.446;6.792;2022-11-06T09:04:55;9.57;;;2.20;;
46481;SDS011;32193;51.446;6.792;2022-11-06T09:07:21;11.73;;;2.58;;
46481;SDS011;32193;51.446;6.792;2022-11-06T09:09:47;11.38;;;2.30;;
46481;SDS011;32193;51.446;6.792;2022-11-06T09:12:13;12.32;;;3.15;;
46481;SDS011;32193;51.446;6.792;2022-11-06T09:14:38;8.40;;;2.17;;
46481;SDS011;32193;51.446;6.792;2022-11-06T09:17:04;9.48;;;2.50;;
46481;SDS011;32193;51.446;6.792;2022-11-06T09:19:30;6.45;;;1.88;;
46481;SDS011;32193;51.446;6.792;2022-11-06T09:21:56;10.15;;;2.08;;
46481;SDS011;32193;51.446;6.792;2022-11-06T09:24:21;7.15;;;2.47;;
46481;SDS011;32193;51.446;6.792;2022-11-06T09:26:47;7.68;;;2.05;;
46481;SDS011;32193;51.446;6.792;2022-11-06T09:29:13;10.18;;;2.55;;
46481;SDS011;32193;51.446;6.792;2022-11-06T09:31:39;9.45;;;2.67;;
46481;SDS011;32193;51.446;6.792;2022-11-06T09:34:04;8.77;;;2.17;;
46481;SDS011;32193;51.446;6.792;2022-11-06T09:36:30;8.40;;;2.42;;
46481;SDS011;32193;51.446;6.792;2022-11-06T09:38:56;8.63;;;2.05;;
46481;SDS011;32193;51.446;6.792;2022-11-06T09:41:29;7.95;;;1.95;;
46481;SDS011;32193;51.446;6.792;2022-11-06T09:47:03;9.43;;;2.38;;
46481;SDS011;32193;51.446;6.792;2022-11-06T09:49:44;7.85;;;2.03;;
46481;SDS011;32193;51.446;6.792;2022-11-06T09:54:57;9.57;;;2.70;;
46481;SDS011;32193;51.446;6.792;2022-11-06T10:00:16;8.88;;;2.40;;
46481;SDS011;32193;51.446;6.792;2022-11-06T10:05:32;9.40;;;2.10;;
46481;SDS011;32193;51.446;6.792;2022-11-06T10:15:37;10.98;;;2.20;;
46481;SDS011;32193;51.446;6.792;2022-11-06T10:21:15;8.07;;;1.85;;
46481;SDS011;32193;51.446;6.792;2022-11-06T10:23:47;6.63;;;1.98;;
46481;SDS011;32193;51.446;6.792;2022-11-06T10:26:29;7.78;;;1.90;;
46481;SDS011;32193;51.446;6.792;2022-11-06T10:34:16;10.15;;;2.10;;
46481;SDS011;32193;51.446;6.792;2022-11-06T10:36:49;7.18;;;2.15;;
46481;SDS011;32193;51.446;6.792;2022-11-06T10:39:19;8.98;;;1.95;;
46481;SDS011;32193;51.446;6.792;2022-11-06T10:41:50;6.68;;;1.85;;
46481;SDS011;32193;51.446;6.792;2022-11-06T10:44:27;7.47;;;2.17;;
46481;SDS011;32193;51.446;6.792;2022-11-06T10:47:01;11.32;;;2.45;;
46481;SDS011;32193;51.446;6.792;2022-11-06T10:49:50;10.68;;;2.50;;
46481;SDS011;32193;51.446;6.792;2022-11-06T11:00:16;8.68;;;2.15;;
46481;SDS011;32193;51.446;6.792;2022-11-06T11:02:44;11.65;;;2.30;;
46481;SDS011;32193;51.446;6.792;2022-11-06T11:05:14;7.80;;;2.38;;
46481;SDS011;32193;51.446;6.792;2022-11-06T11:07:42;12.77;;;2.10;;
46481;SDS011;32193;51.446;6.792;2022-11-06T11:12:47;9.32;;;2.17;;
46481;SDS011;32193;51.446;6.792;2022-11-06T11:15:18;8.02;;;2.58;;
46481;SDS011;32193;51.446;6.792;2022-11-06T11:20:50;7.85;;;2.30;;
46481;SDS011;32193;51.446;6.792;2022-11-06T11:23:27;8.63;;;2.55;;
46481;SDS011;32193;51.446;6.792;2022-11-06T11:25:53;13.88;;;2.08;;
46481;SDS011;32193;51.446;6.792;2022-11-06T11:31:01;5.75;;;2.25;;
46481;SDS011;32193;51.446;6.792;2022-11-06T11:33:31;8.30;;;1.60;;
46481;SDS011;32193;51.446;6.792;2022-11-06T11:35:57;9.77;;;2.35;;
46481;SDS011;32193;51.446;6.792;2022-11-06T11:38:23;7.00;;;1.92;;
46481;SDS011;32193;51.446;6.792;2022-11-06T11:40:50;13.40;;;2.72;;
46481;SDS011;32193;51.446;6.792;2022-11-06T11:43:23;9.48;;;2.08;;
46481;SDS011;32193;51.446;6.792;2022-11-06T11:51:26;8.15;;;2.15;;
46481;SDS011;32193;51.446;6.792;2022-11-06T11:53:54;7.30;;;2.15;;
46481;SDS011;32193;51.446;6.792;2022-11-06T11:56:22;12.55;;;2.58;;
46481;SDS011;32193;51.446;6.792;2022-11-06T11:58:52;9.18;;;2.20;;
46481;SDS011;32193;51.446;6.792;2022-11-06T12:01:31;8.57;;;2.10;;
46481;SDS011;32193;51.446;6.792;2022-11-06T12:07:03;6.68;;;2.55;;
46481;SDS011;32193;51.446;6.792;2022-11-06T12:09:31;7.22;;;2.00;;
46481;SDS011;32193;51.446;6.792;2022-11-06T12:14:34;9.90;;;2.47;;
46481;SDS011;32193;51.446;6.792;2022-11-06T12:19:36;8.38;;;1.90;;
46481;SDS011;32193;51.446;6.792;2022-11-06T12:22:22;10.85;;;1.90;;
46481;SDS011;32193;51.446;6.792;2022-11-06T12:27:22;9.95;;;2.08;;
46481;SDS011;32193;51.446;6.792;2022-11-06T12:30:25;9.15;;;2.42;;
46481;SDS011;32193;51.446;6.792;2022-11-06T12:35:48;7.63;;;2.33;;
46481;SDS011;32193;51.446;6.792;2022-11-06T12:41:09;8.60;;;2.53;;
46481;SDS011;32193;51.446;6.792;2022-11-06T12:43:36;6.47;;;1.83;;
46481;SDS011;32193;51.446;6.792;2022-11-06T12:51:08;7.60;;;2.42;;
46481;SDS011;32193;51.446;6.792;2022-11-06T12:53:50;7.03;;;2.92;;
46481;SDS011;32193;51.446;6.792;2022-11-06T12:56:32;10.57;;;2.60;;
46481;SDS011;32193;51.446;6.792;2022-11-06T12:59:49;6.45;;;2.47;;
46481;SDS011;32193;51.446;6.792;2022-11-06T13:15:31;14.65;;;3.67;;
46481;SDS011;32193;51.446;6.792;2022-11-06T13:18:12;9.38;;;2.90;;
46481;SDS011;32193;51.446;6.792;2022-11-06T13:21:05;8.90;;;2.83;;
46481;SDS011;32193;51.446;6.792;2022-11-06T13:23:57;8.20;;;2.38;;
46481;SDS011;32193;51.446;6.792;2022-11-06T13:26:43;9.18;;;2.63;;
46481;SDS011;32193;51.446;6.792;2022-11-06T13:29:17;8.32;;;2.33;;
46481;SDS011;32193;51.446;6.792;2022-11-06T13:31:50;7.43;;;2.75;;
46481;SDS011;32193;51.446;6.792;2022-11-06T13:34:29;9.70;;;2.83;;
46481;SDS011;32193;51.446;6.792;2022-11-06T13:36:58;5.82;;;1.77;;
46481;SDS011;32193;51.446;6.792;2022-11-06T13:39:39;5.72;;;1.88;;
46481;SDS011;32193;51.446;6.792;2022-11-06T13:42:22;9.73;;;2.20;;
46481;SDS011;32193;51.446;6.792;2022-11-06T13:44:53;9.60;;;2.30;;
46481;SDS011;32193;51.446;6.792;2022-11-06T13:47:21;7.90;;;2.88;;
46481;SDS011;32193;51.446;6.792;2022-11-06T13:50:05;8.02;;;3.10;;
46481;SDS011;32193;51.446;6.792;2022-11-06T13:52:52;6.88;;;2.65;;
46481;SDS011;32193;51.446;6.792;2022-11-06T13:55:43;8.32;;;2.65;;
46481;SDS011;32193;51.446;6.792;2022-11-06T13:58:57;9.23;;;2.58;;
46481;SDS011;32193;51.446;6.792;2022-11-06T14:07:03;7.85;;;2.70;;
46481;SDS011;32193;51.446;6.792;2022-11-06T14:09:31;7.82;;;1.90;;
46481;SDS011;32193;51.446;6.792;2022-11-06T14:12:00;7.80;;;2.45;;
46481;SDS011;32193;51.446;6.792;2022-11-06T14:14:29;10.70;;;2.20;;
46481;SDS011;32193;51.446;6.792;2022-11-06T14:17:38;9.40;;;2.17;;
46481;SDS011;32193;51.446;6.792;2022-11-06T14:24:41;11.02;;;2.05;;
46481;SDS011;32193;51.446;6.792;2022-11-06T14:27:12;9.35;;;2.42;;
46481;SDS011;32193;51.446;6.792;2022-11-06T14:34:55;5.78;;;1.95;;
46481;SDS011;32193;51.446;6.792;2022-11-06T14:44:48;10.55;;;2.70;;
46481;SDS011;32193;51.446;6.792;2022-11-06T14:47:24;10.43;;;2.50;;
46481;SDS011;32193;51.446;6.792;2022-11-06T14:49:54;10.57;;;1.98;;
46481;SDS011;32193;51.446;6.792;2022-11-06T14:52:22;7.10;;;2.13;;
46481;SDS011;32193;51.446;6.792;2022-11-06T14:54:57;9.75;;;2.70;;
46481;SDS011;32193;51.446;6.792;2022-11-06T14:57:38;11.13;;;2.75;;
46481;SDS011;32193;51.446;6.792;2022-11-06T15:00:07;7.65;;;1.95;;
46481;SDS011;32193;51.446;6.792;2022-11-06T15:02:37;8.35;;;1.70;;
46481;SDS011;32193;51.446;6.792;2022-11-06T15:05:14;5.55;;;1.70;;
46481;SDS011;32193;51.446;6.792;2022-11-06T15:15:47;7.28;;;1.80;;
46481;SDS011;32193;51.446;6.792;2022-11-06T15:18:18;10.23;;;2.28;;
46481;SDS011;32193;51.446;6.792;2022-11-06T15:20:49;11.23;;;3.13;;
46481;SDS011;32193;51.446;6.792;2022-11-06T15:31:28;8.25;;;1.88;;
46481;SDS011;32193;51.446;6.792;2022-11-06T15:37:23;9.07;;;2.20;;
46481;SDS011;32193;51.446;6.792;2022-11-06T15:39:54;8.38;;;2.10;;
46481;SDS011;32193;51.446;6.792;2022-11-06T15:42:22;7.85;;;1.95;;
46481;SDS011;32193;51.446;6.792;2022-11-06T15:44:49;6.70;;;1.95;;
46481;SDS011;32193;51.446;6.792;2022-11-06T15:47:23;8.60;;;2.30;;
46481;SDS011;32193;51.446;6.792;2022-11-06T15:52:41;9.75;;;2.00;;
46481;SDS011;32193;51.446;6.792;2022-11-06T15:55:41;10.98;;;2.50;;
46481;SDS011;32193;51.446;6.792;2022-11-06T15:58:08;8.95;;;2.20;;
46481;SDS011;32193;51.446;6.792;2022-11-06T16:00:43;12.05;;;2.47;;
46481;SDS011;32193;51.446;6.792;2022-11-06T16:03:10;13.70;;;2.50;;
46481;SDS011;32193;51.446;6.792;2022-11-06T16:05:39;9.43;;;2.58;;
46481;SDS011;32193;51.446;6.792;2022-11-06T16:08:05;8.52;;;2.63;;
46481;SDS011;32193;51.446;6.792;2022-11-06T16:10:32;7.85;;;2.00;;
46481;SDS011;32193;51.446;6.792;2022-11-06T16:13:00;6.93;;;2.53;;
46481;SDS011;32193;51.446;6.792;2022-11-06T16:21:13;10.20;;;2.57;;
46481;SDS011;32193;51.446;6.792;2022-11-06T16:26:13;6.05;;;2.00;;
46481;SDS011;32193;51.446;6.792;2022-11-06T16:28:43;6.65;;;1.90;;
46481;SDS011;32193;51.446;6.792;2022-11-06T16:31:15;6.30;;;2.03;;
46481;SDS011;32193;51.446;6.792;2022-11-06T16:33:52;6.70;;;2.38;;
46481;SDS011;32193;51.446;6.792;2022-11-06T16:38:52;6.40;;;2.03;;
46481;SDS011;32193;51.446;6.792;2022-11-06T16:41:19;5.68;;;2.03;;
46481;SDS011;32193;51.446;6.792;2022-11-06T16:52:00;6.70;;;2.30;;
46481;SDS011;32193;51.446;6.792;2022-11-06T16:54:26;7.40;;;2.53;;
46481;SDS011;32193;51.446;6.792;2022-11-06T16:56:55;12.48;;;2.75;;
46481;SDS011;32193;51.446;6.792;2022-11-06T16:59:35;9.55;;;2.78;;
46481;SDS011;32193;51.446;6.792;2022-11-06T17:02:01;10.00;;;3.03;;
46481;SDS011;32193;51.446;6.792;2022-11-06T17:04:28;8.25;;;2.97;;
46481;SDS011;32193;51.446;6.792;2022-11-06T17:06:54;12.30;;;3.35;;
46481;SDS011;32193;51.446;6.792;2022-11-06T17:11:46;9.25;;;3.15;;
46481;SDS011;32193;51.446;6.792;2022-11-06T17:14:19;9.68;;;2.80;;
46481;SDS011;32193;51.446;6.792;2022-11-06T17:16:46;7.32;;;2.90;;
46481;SDS011;32193;51.446;6.792;2022-11-06T17:19:14;8.68;;;3.00;;
46481;SDS011;32193;51.446;6.792;2022-11-06T17:21:41;8.60;;;3.30;;
46481;SDS011;32193;51.446;6.792;2022-11-06T17:24:06;8.85;;;3.28;;
46481;SDS011;32193;51.446;6.792;2022-11-06T17:26:32;10.15;;;3.45;;
46481;SDS011;32193;51.446;6.792;2022-11-06T17:28:58;9.20;;;3.28;;
46481;SDS011;32193;51.446;6.792;2022-11-06T17:31:24;9.38;;;3.00;;
46481;SDS011;32193;51.446;6.792;2022-11-06T17:33:51;7.90;;;3.50;;
46481;SDS011;32193;51.446;6.792;2022-11-06T17:36:18;6.80;;;2.38;;
46481;SDS011;32193;51.446;6.792;2022-11-06T17:38:44;18.73;;;4.35;;
46481;SDS011;32193;51.446;6.792;2022-11-06T17:41:10;6.72;;;2.72;;
46481;SDS011;32193;51.446;6.792;2022-11-06T17:43:36;7.93;;;2.95;;
46481;SDS011;32193;51.446;6.792;2022-11-06T17:46:02;7.07;;;3.75;;
46481;SDS011;32193;51.446;6.792;2022-11-06T17:48:28;7.47;;;3.35;;
46481;SDS011;32193;51.446;6.792;2022-11-06T17:50:54;6.18;;;2.80;;
46481;SDS011;32193;51.446;6.792;2022-11-06T17:53:38;6.93;;;3.15;;
46481;SDS011;32193;51.446;6.792;2022-11-06T17:56:04;8.98;;;3.65;;
46481;SDS011;32193;51.446;6.792;2022-11-06T17:58:31;7.20;;;3.20;;
46481;SDS011;32193;51.446;6.792;2022-11-06T18:01:07;7.28;;;2.85;;
46481;SDS011;32193;51.446;6.792;2022-11-06T18:03:35;7.10;;;2.50;;
46481;SDS011;32193;51.446;6.792;2022-11-06T18:06:10;6.50;;;2.47;;
46481;SDS011;32193;51.446;6.792;2022-11-06T18:08:37;6.07;;;2.45;;
46481;SDS011;32193;51.446;6.792;2022-11-06T18:11:03;6.43;;;2.67;;